Time;durP1;ratioP1;P1;durP2;ratioP2;P2;SDS_P1;SDS_P2;PMS_P1;PMS_P2;Temp;Humidity;BMP_temperature;BMP_pressure;BME280_temperature;BME280_humidity;BME280_pressure;Samples;Min_cycle;Max_cycle;Signal;HPM_P1;HPM_P2
2022/03/20 00:01:07;;;;;;;;;5.25;3.00;;;;;8.74;36.48;102380.53;5074662;28;45219;-73
2022/03/20 00:03:32;;;;;;;;;1.75;1.75;;;;;8.78;36.37;102386.88;5078888;28;45585;-74
2022/03/20 00:05:58;;;;;;;;;5.00;4.00;;;;;8.47;36.47;102350.84;5077607;28;45446;-73
2022/03/20 00:08:24;;;;;;;;;2.75;2.75;;;;;8.81;36.22;102406.41;5079732;28;45353;-73
2022/03/20 00:10:52;;;;;;;;;3.25;3.25;;;;;8.90;37.16;102422.75;5071633;28;45494;-73
2022/03/20 00:13:22;;;;;;;;;2.50;2.50;;;;;8.86;36.90;102414.59;5081114;27;45196;-73
2022/03/20 00:15:50;;;;;;;;;4.00;3.50;;;;;8.70;37.64;102399.59;5071125;27;45457;-72
2022/03/20 00:18:20;;;;;;;;;2.00;2.00;;;;;8.78;37.37;102424.69;5079279;28;45322;-73
2022/03/20 00:20:49;;;;;;;;;4.50;3.00;;;;;8.44;37.45;102374.38;5071540;27;45608;-73
2022/03/20 00:23:16;;;;;;;;;3.25;3.00;;;;;8.64;37.56;102410.69;5081177;27;45367;-73
2022/03/20 00:25:44;;;;;;;;;4.75;2.50;;;;;8.56;37.82;102405.81;5070971;27;46318;-73
2022/03/20 00:28:11;;;;;;;;;2.50;2.50;;;;;8.51;37.85;102408.16;5081249;28;45264;-73
2022/03/20 00:30:37;;;;;;;;;4.25;3.00;;;;;8.55;37.66;102425.09;5068097;28;45260;-73
2022/03/20 00:33:03;;;;;;;;;3.25;2.75;;;;;8.35;38.05;102393.16;5067065;28;47026;-72
2022/03/20 00:35:30;;;;;;;;;3.00;3.00;;;;;8.46;37.96;102415.81;5075529;28;45307;-73
2022/03/20 00:37:55;;;;;;;;;6.00;3.00;;;;;8.26;38.02;102397.88;5068832;27;45254;-73
2022/03/20 00:40:20;;;;;;;;;3.50;3.50;;;;;8.34;38.12;102417.69;5078132;28;45404;-73
2022/03/20 00:42:46;;;;;;;;;4.00;3.00;;;;;8.26;38.62;102416.31;5069934;27;45546;-73
2022/03/20 00:45:11;;;;;;;;;4.00;3.00;;;;;8.18;38.60;102414.97;5077481;28;45335;-73
2022/03/20 00:47:38;;;;;;;;;6.50;3.50;;;;;8.10;38.68;102409.25;5071126;28;45312;-73
2022/03/20 00:50:05;;;;;;;;;2.50;2.50;;;;;8.10;38.95;102403.97;5079855;28;45573;-72
2022/03/20 00:52:32;;;;;;;;;3.00;3.00;;;;;8.08;38.63;102408.22;5072177;27;45324;-73
2022/03/20 00:54:58;;;;;;;;;3.75;2.00;;;;;8.02;38.50;102400.88;5078868;28;46265;-72
2022/03/20 00:57:23;;;;;;;;;3.25;3.25;;;;;7.91;38.67;102393.13;5080536;28;45374;-72
2022/03/20 00:59:48;;;;;;;;;2.00;2.00;;;;;7.89;38.54;102398.28;5072712;28;45479;-73
2022/03/20 01:02:14;;;;;;;;;2.00;2.00;;;;;7.90;38.94;102404.47;5072755;28;47516;-73
2022/03/20 01:04:40;;;;;;;;;2.00;2.00;;;;;7.89;38.74;102402.66;5080059;28;45978;-73
2022/03/20 01:07:05;;;;;;;;;2.00;2.00;;;;;7.84;38.87;102403.31;5079416;28;45407;-72
2022/03/20 01:09:31;;;;;;;;;2.00;2.00;;;;;7.66;38.83;102373.22;5079725;27;45858;-73
2022/03/20 01:11:58;;;;;;;;;2.25;2.25;;;;;7.70;39.53;102377.88;5071904;28;45431;-73
2022/03/20 01:14:25;;;;;;;;;3.25;2.00;;;;;7.75;39.08;102393.91;5079807;27;45829;-73
2022/03/20 01:16:51;;;;;;;;;4.50;2.00;;;;;7.45;39.11;102350.81;5071295;28;45295;-73
2022/03/20 01:19:16;;;;;;;;;2.00;2.00;;;;;7.68;39.26;102403.16;5079685;28;45481;-72
2022/03/20 01:21:42;;;;;;;;;2.75;1.50;;;;;7.59;39.58;102381.56;5071040;28;45568;-73
2022/03/20 01:24:09;;;;;;;;;1.25;1.25;;;;;7.46;39.96;102357.94;5076861;28;47251;-72
2022/03/20 01:26:35;;;;;;;;;1.00;1.00;;;;;7.56;39.89;102387.53;5070976;28;45312;-73
2022/03/20 01:29:02;;;;;;;;;2.00;2.00;;;;;7.42;39.56;102364.69;5079621;27;45481;-73
2022/03/20 01:31:28;;;;;;;;;4.00;2.00;;;;;7.25;39.91;102342.59;5068899;28;44967;-73
2022/03/20 01:33:54;;;;;;;;;1.75;1.75;;;;;7.25;39.59;102337.34;5079518;28;46088;-73
2022/03/20 01:36:20;;;;;;;;;3.75;2.50;;;;;7.46;39.79;102381.59;5069148;28;45256;-73
2022/03/20 01:38:46;;;;;;;;;2.75;2.75;;;;;7.41;39.70;102381.31;5071649;28;45453;-73
2022/03/20 01:41:12;;;;;;;;;1.00;1.00;;;;;7.25;40.17;102368.00;5071038;28;47107;-73
2022/03/20 01:43:38;;;;;;;;;3.75;2.00;;;;;7.14;39.92;102354.16;5079925;27;45552;-72
2022/03/20 01:46:04;;;;;;;;;3.00;2.00;;;;;7.03;40.42;102344.69;5073919;28;45536;-72
2022/03/20 01:48:29;;;;;;;;;6.00;1.75;;;;;7.03;40.57;102344.69;5072042;28;45425;-73
2022/03/20 01:50:55;;;;;;;;;3.00;2.75;;;;;7.17;40.14;102381.59;5076591;28;45530;-73
2022/03/20 01:53:20;;;;;;;;;1.25;1.25;;;;;7.13;40.61;102378.66;5074197;28;45294;-73
2022/03/20 01:55:46;;;;;;;;;2.00;2.00;;;;;7.09;40.73;102371.41;5078699;28;45387;-74
2022/03/20 01:58:14;;;;;;;;;3.00;1.75;;;;;7.07;40.64;102375.66;5072063;27;45400;-74
2022/03/20 02:00:39;;;;;;;;;2.00;2.00;;;;;6.89;41.15;102349.06;5073007;28;45410;-73
2022/03/20 02:03:05;;;;;;;;;4.00;2.50;;;;;6.94;40.96;102366.94;5072570;28;47996;-73
2022/03/20 02:05:30;;;;;;;;;3.75;2.00;;;;;6.81;40.85;102338.09;5077475;28;45587;-73
2022/03/20 02:07:56;;;;;;;;;2.00;2.00;;;;;6.95;42.10;102363.53;5079638;27;45249;-74
2022/03/20 02:10:21;;;;;;;;;2.00;2.00;;;;;6.90;42.01;102359.69;5072453;28;45903;-73
2022/03/20 02:12:47;;;;;;;;;3.75;1.00;;;;;6.79;41.89;102344.97;5080501;27;46188;-73
2022/03/20 02:15:14;;;;;;;;;3.00;2.00;;;;;6.76;41.71;102330.72;5073966;27;45376;-73
2022/03/20 02:17:42;;;;;;;;;3.00;3.00;;;;;6.66;41.69;102316.97;5077701;28;45576;-73
2022/03/20 02:20:08;;;;;;;;;2.00;2.00;;;;;6.44;41.94;102288.44;5075579;28;46521;-73
2022/03/20 02:22:42;;;;;;;;;3.00;3.00;;;;;6.74;41.99;102338.50;5076749;28;48134;-73
2022/03/20 02:25:10;;;;;;;;;2.00;2.00;;;;;6.77;41.82;102346.56;5073700;27;45375;-73
2022/03/20 02:27:39;;;;;;;;;3.50;2.00;;;;;6.73;42.84;102340.22;5075681;28;45256;-73
2022/03/20 02:30:12;;;;;;;;;4.00;2.50;;;;;6.71;43.02;102336.56;5073802;27;45263;-73
2022/03/20 02:32:40;;;;;;;;;3.00;2.00;;;;;6.54;42.53;102315.28;5076773;28;46080;-73
2022/03/20 02:35:06;;;;;;;;;2.50;2.00;;;;;6.63;42.62;102331.63;5074006;27;45524;-73
2022/03/20 02:37:34;;;;;;;;;2.50;2.50;;;;;6.60;42.32;102319.19;5067693;27;45300;-73
2022/03/20 02:40:01;;;;;;;;;3.25;3.25;;;;;6.60;43.66;102328.81;5076578;28;45340;-73
2022/03/20 02:42:27;;;;;;;;;4.00;3.00;;;;;6.43;43.70;102304.06;5069029;28;45282;-73
2022/03/20 02:45:06;;;;;;;;;2.25;2.25;;;;;6.57;43.36;102328.63;5078584;28;45398;-73
2022/03/20 02:47:47;;;;;;;;;2.00;2.00;;;;;6.54;43.80;102326.69;5078528;27;45476;-72
2022/03/20 02:50:28;;;;;;;;;5.00;4.00;;;;;6.45;43.49;102315.59;5078129;27;45764;-73
2022/03/20 02:52:59;;;;;;;;;6.50;3.00;;;;;6.52;44.19;102322.16;5070485;27;46280;-73
2022/03/20 02:55:35;;;;;;;;;4.00;2.50;;;;;6.18;43.51;102262.16;5077995;28;45323;-72
2022/03/20 02:58:06;;;;;;;;;2.00;2.00;;;;;6.49;43.25;102315.88;5069929;28;45410;-73
2022/03/20 03:00:33;;;;;;;;;3.00;3.00;;;;;6.46;43.49;102314.78;5078073;27;45276;-72
2022/03/20 03:03:00;;;;;;;;;3.25;3.25;;;;;6.40;45.11;102304.78;5077140;28;47379;-73
2022/03/20 03:05:28;;;;;;;;;6.25;4.50;;;;;6.39;44.73;102309.94;5076852;28;45525;-73
2022/03/20 03:10:57;;;;;;;;;3.00;2.50;;;;;6.16;44.67;102271.66;5068716;28;45394;-72
2022/03/20 03:13:27;;;;;;;;;4.25;3.00;;;;;6.28;45.04;102302.25;5078461;28;45340;-72
2022/03/20 03:15:54;;;;;;;;;5.25;3.25;;;;;6.27;44.56;102292.59;5068713;27;45410;-73
2022/03/20 03:18:20;;;;;;;;;6.00;2.25;;;;;6.12;45.48;102275.78;5077312;28;45610;-73
2022/03/20 03:20:47;;;;;;;;;4.25;4.00;;;;;6.05;43.38;102255.22;5073362;28;46104;-72
2022/03/20 03:23:13;;;;;;;;;6.00;3.25;;;;;6.18;44.09;102289.31;5064982;28;46381;-74
2022/03/20 03:25:40;;;;;;;;;3.25;3.25;;;;;6.16;44.68;102287.41;5068724;28;45356;-73
2022/03/20 03:28:06;;;;;;;;;5.00;2.50;;;;;6.13;45.44;102290.72;5078708;27;45497;-74
2022/03/20 03:30:32;;;;;;;;;5.50;3.25;;;;;6.09;44.54;102279.94;5073304;27;45416;-74
2022/03/20 03:32:57;;;;;;;;;4.25;2.25;;;;;5.99;46.11;102276.72;5065209;28;45923;-74
2022/03/20 03:35:41;;;;;;;;;5.50;4.50;;;;;5.57;44.76;102201.25;5068382;28;45591;-75
2022/03/20 03:38:12;;;;;;;;;3.00;3.00;;;;;5.76;44.32;102237.50;5066792;28;45240;-74
2022/03/20 03:40:38;;;;;;;;;5.25;5.00;;;;;5.98;45.00;102281.84;5075774;28;45461;-74
2022/03/20 03:43:05;;;;;;;;;5.00;5.00;;;;;5.67;46.47;102237.78;5067926;28;46351;-73
2022/03/20 03:45:30;;;;;;;;;6.25;5.00;;;;;5.31;46.09;102178.53;5077429;28;45267;-74
2022/03/20 03:47:56;;;;;;;;;6.50;3.00;;;;;5.86;46.17;102281.91;5068618;28;45143;-74
2022/03/20 03:50:22;;;;;;;;;2.75;2.75;;;;;5.83;46.39;102280.00;5076537;28;46755;-72
2022/03/20 03:52:48;;;;;;;;;6.25;5.75;;;;;5.61;45.78;102238.28;5070514;27;45986;-73
2022/03/20 03:55:14;;;;;;;;;5.25;5.25;;;;;5.83;46.33;102279.09;5074438;28;45673;-72
2022/03/20 03:57:44;;;;;;;;;7.75;5.00;;;;;5.81;45.92;102278.97;5082913;28;45255;-72
2022/03/20 04:00:10;;;;;;;;;6.25;5.75;;;;;5.80;46.34;102266.66;5082035;27;45584;-73
2022/03/20 04:02:35;;;;;;;;;7.75;6.75;;;;;5.65;46.30;102241.09;5076862;27;45336;-72
2022/03/20 04:05:01;;;;;;;;;5.75;5.25;;;;;5.70;46.48;102264.22;5081696;28;45509;-73
2022/03/20 04:07:26;;;;;;;;;5.25;3.00;;;;;5.53;46.13;102223.75;5077044;27;45321;-73
2022/03/20 04:09:52;;;;;;;;;5.25;3.00;;;;;5.78;45.99;102262.13;5078193;27;45510;-73
2022/03/20 04:12:17;;;;;;;;;5.50;5.00;;;;;5.76;45.75;102268.97;5075566;28;45389;-73
2022/03/20 04:14:43;;;;;;;;;7.00;6.25;;;;;5.37;47.49;102203.44;5079433;27;45324;-72
2022/03/20 04:17:11;;;;;;;;;6.50;6.00;;;;;5.66;47.64;102250.78;5074290;28;45275;-73
2022/03/20 04:19:37;;;;;;;;;6.25;6.00;;;;;5.50;48.04;102228.78;5080019;27;45335;-73
2022/03/20 04:22:03;;;;;;;;;3.75;3.75;;;;;5.62;46.79;102252.31;5071671;28;48463;-73
2022/03/20 04:24:28;;;;;;;;;11.25;7.00;;;;;5.39;47.78;102228.03;5080596;27;45386;-73
2022/03/20 04:26:55;;;;;;;;;10.00;7.00;;;;;5.36;48.19;102226.94;5072345;28;45630;-73
2022/03/20 04:29:21;;;;;;;;;3.00;3.00;;;;;5.61;48.43;102279.34;5077670;27;45324;-73
2022/03/20 04:31:49;;;;;;;;;7.00;6.00;;;;;5.27;47.72;102226.31;5069768;28;45331;-73
2022/03/20 04:34:15;;;;;;;;;8.00;7.50;;;;;5.40;48.77;102249.94;5075699;28;45382;-73
2022/03/20 04:36:41;;;;;;;;;9.50;6.00;;;;;5.47;47.79;102267.00;5073756;28;45347;-73
2022/03/20 04:39:07;;;;;;;;;11.25;8.00;;;;;5.50;48.59;102281.22;5079185;28;46127;-73
2022/03/20 04:41:32;;;;;;;;;7.00;5.25;;;;;5.30;48.79;102243.16;5073146;27;46264;-73
2022/03/20 04:43:58;;;;;;;;;7.50;6.25;;;;;5.43;49.42;102267.59;5078232;28;45470;-73
2022/03/20 04:46:23;;;;;;;;;6.50;6.50;;;;;5.26;48.46;102237.59;5075061;28;45291;-73
2022/03/20 04:59:45;;;;;;;;;6.75;5.00;;;;;5.42;49.67;102269.31;5079806;28;45441;-73
2022/03/20 05:02:10;;;;;;;;;6.50;3.00;;;;;5.21;48.59;102231.13;5074300;27;46103;-73
2022/03/20 05:04:37;;;;;;;;;11.00;7.50;;;;;5.34;48.67;102260.00;5079982;27;45383;-73
2022/03/20 05:07:03;;;;;;;;;9.50;6.25;;;;;5.23;49.67;102250.47;5071291;28;45479;-73
2022/03/20 05:14:58;;;;;;;;;9.00;7.25;;;;;5.07;48.90;102214.44;5076520;28;45357;-73
2022/03/20 05:17:23;;;;;;;;;8.00;7.00;;;;;5.28;49.35;102265.72;5073858;28;45466;-73
2022/03/20 05:19:49;;;;;;;;;7.00;7.00;;;;;5.01;49.29;102224.50;5077489;27;45383;-73
2022/03/20 05:22:14;;;;;;;;;7.00;6.50;;;;;5.24;49.99;102261.09;5073492;28;45419;-73
2022/03/20 05:24:40;;;;;;;;;8.00;6.25;;;;;5.23;50.47;102266.22;5078853;27;45263;-73
2022/03/20 05:27:07;;;;;;;;;6.50;6.50;;;;;5.19;50.12;102266.81;5072340;28;45314;-73
2022/03/20 05:29:33;;;;;;;;;4.50;4.50;;;;;5.15;47.94;102265.66;5075123;27;45232;-72
2022/03/20 05:32:01;;;;;;;;;8.00;6.50;;;;;5.13;47.58;102265.59;5068981;28;46069;-73
2022/03/20 05:34:26;;;;;;;;;7.75;6.75;;;;;4.93;49.25;102223.97;5090360;27;45751;-73
2022/03/20 05:36:52;;;;;;;;;7.25;6.50;;;;;5.04;50.58;102249.22;5069387;28;45367;-72
2022/03/20 05:39:18;;;;;;;;;11.50;6.75;;;;;4.92;50.83;102233.53;5075812;28;45285;-72
2022/03/20 05:41:46;;;;;;;;;11.00;6.00;;;;;5.08;50.77;102252.97;5080888;27;48236;-72
2022/03/20 05:44:12;;;;;;;;;7.00;7.00;;;;;4.88;51.21;102222.75;5078129;28;45425;-73
2022/03/20 05:46:40;;;;;;;;;10.50;8.75;;;;;5.00;48.97;102243.66;5072077;28;45165;-72
2022/03/20 05:49:06;;;;;;;;;6.50;6.25;;;;;4.87;50.66;102226.16;5076272;28;45392;-72
2022/03/20 05:51:32;;;;;;;;;9.75;8.25;;;;;5.02;51.32;102255.16;5072478;27;46274;-72
2022/03/20 05:53:58;;;;;;;;;7.25;5.00;;;;;4.94;48.96;102238.88;5079306;28;45261;-72
2022/03/20 05:59:08;;;;;;;;;6.00;6.00;;;;;4.85;51.31;102236.53;5067598;28;45397;-72
2022/03/20 06:01:33;;;;;;;;;13.75;7.00;;;;;4.94;50.62;102260.75;5074397;28;45291;-73
2022/03/20 06:04:00;;;;;;;;;7.75;7.75;;;;;4.93;48.64;102252.81;5078062;27;45266;-73
2022/03/20 06:06:26;;;;;;;;;9.25;7.00;;;;;4.92;50.00;102248.34;5070058;28;45489;-73
2022/03/20 06:08:51;;;;;;;;;6.25;5.75;;;;;4.86;50.57;102247.91;5077262;28;48163;-73
2022/03/20 06:11:17;;;;;;;;;8.00;8.00;;;;;4.66;50.05;102210.75;5072051;28;47450;-73
2022/03/20 06:13:45;;;;;;;;;9.75;7.75;;;;;4.54;51.16;102194.19;5079113;27;45239;-73
2022/03/20 06:16:10;;;;;;;;;7.50;6.75;;;;;4.79;51.44;102250.88;5070034;28;45554;-73
2022/03/20 06:18:39;;;;;;;;;6.50;6.50;;;;;4.85;50.71;102262.75;5079026;28;45484;-73
2022/03/20 06:21:05;;;;;;;;;11.00;9.50;;;;;4.68;51.01;102245.81;5075955;28;47318;-73
2022/03/20 06:23:31;;;;;;;;;8.75;7.75;;;;;4.86;50.80;102267.16;5079608;28;45329;-73
2022/03/20 06:25:57;;;;;;;;;6.75;6.75;;;;;4.86;50.75;102269.78;5065169;28;45450;-73
2022/03/20 06:28:22;;;;;;;;;8.25;6.00;;;;;4.73;50.39;102256.59;5069167;28;45509;-73
2022/03/20 06:30:48;;;;;;;;;8.75;6.75;;;;;4.69;51.43;102249.34;5072779;28;45888;-73
2022/03/20 06:33:15;;;;;;;;;10.00;8.25;;;;;4.83;51.58;102277.44;5069293;28;45198;-73
2022/03/20 06:35:41;;;;;;;;;11.00;9.75;;;;;4.83;51.21;102277.44;5076778;28;45375;-73
2022/03/20 06:38:07;;;;;;;;;10.75;9.25;;;;;4.60;50.51;102232.97;5069512;28;45414;-73
2022/03/20 06:40:33;;;;;;;;;11.25;8.00;;;;;4.69;50.59;102239.78;5076665;28;45428;-73
2022/03/20 06:42:58;;;;;;;;;10.00;8.25;;;;;4.82;51.67;102278.25;5079103;27;45272;-73
2022/03/20 06:45:24;;;;;;;;;11.50;8.25;;;;;4.64;50.96;102256.88;5078597;27;45272;-73
2022/03/20 06:47:50;;;;;;;;;9.00;8.25;;;;;4.86;50.47;102290.75;5074345;28;46086;-73
2022/03/20 06:50:15;;;;;;;;;9.50;9.50;;;;;4.75;50.34;102265.50;5073890;28;45547;-73
2022/03/20 06:52:41;;;;;;;;;10.00;9.50;;;;;4.93;49.74;102298.25;5071223;27;45263;-73
2022/03/20 06:55:12;;;;;;;;;9.50;8.50;;;;;4.77;50.43;102266.53;5082991;27;45313;-73
2022/03/20 06:57:43;;;;;;;;;14.25;13.00;;;;;4.98;49.97;102295.03;5078595;28;45516;-73
2022/03/20 07:00:10;;;;;;;;;11.25;11.25;;;;;4.89;50.58;102279.56;5078004;27;45521;-72
2022/03/20 07:02:35;;;;;;;;;14.75;10.75;;;;;4.94;52.21;102286.06;5071748;28;45466;-73
2022/03/20 07:05:02;;;;;;;;;16.75;10.00;;;;;4.87;51.40;102265.44;5078209;28;45445;-73
2022/03/20 07:07:28;;;;;;;;;14.25;11.75;;;;;5.13;51.93;102291.78;5077624;28;46378;-73
2022/03/20 07:09:54;;;;;;;;;13.75;13.75;;;;;5.35;51.22;102306.41;5077703;27;46149;-73
2022/03/20 07:12:19;;;;;;;;;24.00;15.75;;;;;5.49;50.71;102304.72;5077262;28;45975;-73
2022/03/20 07:14:45;;;;;;;;;21.00;15.00;;;;;5.59;50.44;102297.59;5071852;28;45155;-73
2022/03/20 07:17:14;;;;;;;;;16.25;16.25;;;;;5.52;49.96;102252.50;5069953;28;45789;-73
2022/03/20 07:19:43;;;;;;;;;19.75;17.00;;;;;5.95;50.13;102300.03;5077254;28;45949;-73
2022/03/20 07:22:10;;;;;;;;;16.00;13.25;;;;;5.81;49.95;102254.44;5069424;28;45348;-73
2022/03/20 07:24:41;;;;;;;;;19.00;11.50;;;;;6.15;49.29;102288.22;5073672;27;45832;-73
2022/03/20 07:29:51;;;;;;;;;43.00;33.25;;;;;6.37;48.72;102264.28;5079429;28;45339;-73
2022/03/20 07:32:17;;;;;;;;;11.00;7.00;;;;;6.65;48.63;102296.75;5075092;28;45358;-73
2022/03/20 07:34:46;;;;;;;;;18.00;17.00;;;;;6.85;48.11;102308.53;5079539;28;45370;-73
2022/03/20 07:37:16;;;;;;;;;17.00;16.75;;;;;7.01;48.44;102314.78;5069726;28;45867;-73
2022/03/20 07:39:46;;;;;;;;;14.00;12.00;;;;;6.99;47.65;102279.59;5080494;28;45331;-73
2022/03/20 07:42:13;;;;;;;;;20.25;19.00;;;;;6.80;47.89;102232.84;5071989;27;45318;-73
2022/03/20 07:44:39;;;;;;;;;14.75;12.75;;;;;7.38;47.31;102308.34;5074122;28;45241;-73
2022/03/20 07:47:08;;;;;;;;;17.00;15.00;;;;;7.16;47.63;102282.44;5080630;28;45904;-73
2022/03/20 07:49:37;;;;;;;;;18.75;17.50;;;;;7.22;47.72;102283.66;5080877;28;45426;-73
2022/03/20 07:52:06;;;;;;;;;12.25;12.25;;;;;7.21;47.37;102274.88;5069733;28;45282;-73
2022/03/20 07:54:32;;;;;;;;;18.50;18.50;;;;;7.42;47.72;102293.66;5081708;27;44832;-73
2022/03/20 07:56:58;;;;;;;;;12.00;12.00;;;;;7.49;47.46;102314.28;5082846;27;46573;-73
2022/03/20 07:59:23;;;;;;;;;20.50;18.25;;;;;7.49;47.39;102297.59;5080975;27;46334;-73
2022/03/20 08:01:49;;;;;;;;;23.50;19.00;;;;;7.29;47.20;102260.47;5076251;28;45456;-73
2022/03/20 08:04:16;;;;;;;;;52.75;44.25;;;;;7.48;47.29;102272.09;5081079;27;45437;-73
2022/03/20 08:06:42;;;;;;;;;41.50;36.50;;;;;7.83;46.87;102303.16;5072396;28;45446;-73
2022/03/20 08:09:08;;;;;;;;;23.25;16.50;;;;;7.87;46.75;102275.28;5078815;27;46064;-72
2022/03/20 08:11:33;;;;;;;;;19.00;17.25;;;;;8.05;46.86;102286.91;5071850;28;45433;-73
2022/03/20 08:13:58;;;;;;;;;24.75;20.75;;;;;8.04;46.19;102256.13;5080840;27;45223;-73
2022/03/20 08:16:29;;;;;;;;;24.50;18.50;;;;;8.37;46.29;102270.31;5080936;27;45370;-73
2022/03/20 08:18:55;;;;;;;;;22.50;19.25;;;;;8.67;45.78;102288.72;5080404;28;45276;-73
2022/03/20 08:21:20;;;;;;;;;29.75;21.50;;;;;8.75;45.37;102276.88;5078726;28;45329;-73
2022/03/20 08:23:46;;;;;;;;;29.50;24.50;;;;;8.94;45.40;102284.06;5080566;28;45129;-73
2022/03/20 08:26:11;;;;;;;;;26.00;21.00;;;;;8.69;45.03;102206.25;5070398;28;46515;-73
2022/03/20 08:28:45;;;;;;;;;26.50;23.00;;;;;9.30;44.80;102287.78;5072174;28;45367;-72
2022/03/20 08:31:10;;;;;;;;;26.75;23.00;;;;;8.96;44.87;102224.38;5087523;27;45974;-73
2022/03/20 08:33:36;;;;;;;;;31.50;25.00;;;;;9.55;44.84;102297.91;5074079;28;45232;-72
2022/03/20 08:36:03;;;;;;;;;24.75;21.00;;;;;9.70;44.23;102297.81;5077155;27;45234;-73
2022/03/20 08:38:28;;;;;;;;;26.50;22.50;;;;;9.71;44.97;102272.28;5073862;28;47779;-74
2022/03/20 08:40:54;;;;;;;;;29.00;22.50;;;;;9.98;43.49;102297.47;5070318;28;45283;-74
2022/03/20 08:43:21;;;;;;;;;31.75;25.75;;;;;9.92;43.21;102268.13;5073780;28;45378;-74
2022/03/20 08:45:47;;;;;;;;;37.75;29.75;;;;;10.22;42.87;102305.75;5083638;27;46983;-74
2022/03/20 08:48:13;;;;;;;;;37.00;31.50;;;;;10.36;43.73;102298.50;5073473;28;45977;-74
2022/03/20 08:50:39;;;;;;;;;46.00;37.25;;;;;10.30;43.08;102280.59;5068627;28;45374;-74
2022/03/20 08:53:04;;;;;;;;;44.00;34.25;;;;;10.06;42.29;102248.56;5080445;28;45279;-73
2022/03/20 08:55:33;;;;;;;;;27.50;26.50;;;;;10.41;42.96;102304.94;5079758;27;45457;-74
2022/03/20 08:57:59;;;;;;;;;28.25;25.00;;;;;10.45;42.77;102304.28;5079384;28;47718;-74
2022/03/20 09:00:25;;;;;;;;;26.50;23.25;;;;;10.48;43.66;102300.88;5074965;28;47707;-73
2022/03/20 09:02:51;;;;;;;;;37.00;33.75;;;;;10.50;42.94;102293.91;5075630;27;45301;-73
2022/03/20 09:05:18;;;;;;;;;33.75;27.75;;;;;10.57;42.40;102297.75;5080199;28;45363;-74
2022/03/20 09:07:45;;;;;;;;;99.33;94.67;;;;;10.74;41.74;102296.81;5076890;27;45411;-74
2022/03/20 09:10:11;;;;;;;;;45.75;34.75;;;;;10.77;42.98;102289.03;5075444;28;45222;-74
2022/03/20 09:12:38;;;;;;;;;51.25;38.75;;;;;11.04;42.05;102309.69;5076600;28;45389;-74
2022/03/20 09:15:06;;;;;;;;;24.75;23.25;;;;;11.11;42.89;102277.38;5076265;27;45486;-74
2022/03/20 09:20:16;;;;;;;;;33.00;27.75;;;;;11.76;41.85;102310.28;5074500;28;45382;-74
2022/03/20 09:22:41;;;;;;;;;63.25;49.75;;;;;12.02;41.11;102308.81;5076769;28;45469;-73
2022/03/20 09:25:07;;;;;;;;;29.75;25.50;;;;;12.28;40.94;102318.75;5071238;27;45405;-74
2022/03/20 09:27:34;;;;;;;;;42.50;36.75;;;;;12.60;41.47;102318.25;5076282;28;45367;-74
2022/03/20 09:30:01;;;;;;;;;32.50;28.75;;;;;12.72;40.12;102294.91;5075512;27;45178;-74
2022/03/20 09:32:26;;;;;;;;;38.00;31.00;;;;;13.08;40.00;102307.75;5069073;27;45524;-74
2022/03/20 09:34:52;;;;;;;;;39.25;35.50;;;;;13.06;37.42;102290.91;5077460;28;45370;-74
2022/03/20 09:37:17;;;;;;;;;32.25;29.25;;;;;13.09;39.00;102281.28;5069541;28;45310;-74
2022/03/20 09:39:43;;;;;;;;;28.25;28.25;;;;;13.26;38.07;102295.22;5079444;28;45312;-74
2022/03/20 09:42:08;;;;;;;;;27.25;25.50;;;;;13.43;38.97;102295.84;5070766;27;45265;-75
2022/03/20 09:44:38;;;;;;;;;30.50;26.00;;;;;13.47;38.29;102299.50;5072617;28;46310;-74
2022/03/20 09:47:04;;;;;;;;;29.25;26.75;;;;;13.42;37.53;102289.63;5078363;28;47125;-74
2022/03/20 09:49:30;;;;;;;;;32.50;27.00;;;;;13.38;37.61;102277.06;5078771;28;45283;-74
2022/03/20 09:51:56;;;;;;;;;36.25;30.75;;;;;13.39;37.19;102264.72;5071615;28;45209;-74
2022/03/20 09:54:21;;;;;;;;;44.25;36.50;;;;;13.56;38.52;102276.84;5076172;28;45907;-73
2022/03/20 09:56:51;;;;;;;;;28.75;25.50;;;;;13.77;37.08;102297.06;5079046;28;45229;-74
2022/03/20 09:59:17;;;;;;;;;26.50;25.00;;;;;13.62;37.49;102274.41;5078774;27;45420;-74
2022/03/20 10:01:42;;;;;;;;;38.00;30.75;;;;;13.83;36.17;102283.97;5070579;28;45437;-74
2022/03/20 10:04:08;;;;;;;;;33.75;28.50;;;;;14.25;36.90;102310.22;5078686;27;45308;-74
2022/03/20 10:06:36;;;;;;;;;51.75;42.00;;;;;14.21;34.49;102287.06;5070298;28;45466;-73
2022/03/20 10:09:05;;;;;;;;;33.50;26.50;;;;;14.37;34.06;102296.41;5079153;27;45424;-74
2022/03/20 10:11:31;;;;;;;;;36.00;32.00;;;;;14.40;34.49;102304.53;5070120;27;45382;-74
2022/03/20 10:14:10;;;;;;;;;38.75;33.50;;;;;14.66;35.86;102311.63;5077150;28;46148;-73
2022/03/20 10:16:38;;;;;;;;;68.25;52.50;;;;;14.87;33.59;102299.81;5069420;28;45232;-74
2022/03/20 10:19:23;;;;;;;;;30.50;28.25;;;;;14.97;35.78;102300.16;5078751;27;45243;-74
2022/03/20 10:21:59;;;;;;;;;29.25;26.25;;;;;15.25;35.24;102306.31;5075590;28;45213;-74
2022/03/20 10:24:27;;;;;;;;;30.00;28.75;;;;;15.39;35.85;102275.63;5076050;27;45499;-73
2022/03/20 10:27:05;;;;;;;;;94.00;91.50;;;;;15.78;35.62;102298.06;5067978;28;45455;-74
2022/03/20 10:29:33;;;;;;;;;28.00;26.50;;;;;16.08;33.21;102301.53;5074768;28;45468;-74
2022/03/20 10:32:17;;;;;;;;;58.50;47.50;;;;;16.06;32.57;102284.56;5068390;28;45250;-74
2022/03/20 10:34:55;;;;;;;;;25.75;22.25;;;;;15.60;31.86;102226.44;5065180;28;45253;-74
2022/03/20 10:37:51;;;;;;;;;40.00;35.75;;;;;16.11;33.88;102293.59;5068273;28;46207;-74
2022/03/20 10:40:28;;;;;;;;;31.75;30.25;;;;;16.47;32.98;102292.72;5077786;28;45498;-74
2022/03/20 10:43:11;;;;;;;;;28.25;25.25;;;;;16.56;32.74;102295.59;5069369;27;45349;-74
2022/03/20 10:46:00;;;;;;;;;52.00;42.75;;;;;16.39;29.95;102293.41;5077905;28;45786;-74
2022/03/20 10:48:48;;;;;;;;;26.75;21.75;;;;;16.57;32.12;102291.16;5072558;28;46029;-74
2022/03/20 10:51:14;;;;;;;;;30.25;26.00;;;;;16.71;30.07;102276.34;5055406;28;45286;-74
2022/03/20 10:53:59;;;;;;;;;30.50;27.00;;;;;16.96;30.79;102283.19;5078270;27;45421;-74
2022/03/20 10:56:25;;;;;;;;;41.50;35.25;;;;;16.88;30.40;102268.75;5077467;28;45512;-74
2022/03/20 10:58:52;;;;;;;;;21.00;18.00;;;;;16.92;27.72;102277.75;5076865;28;47618;-74
2022/03/20 11:01:17;;;;;;;;;38.00;32.50;;;;;16.91;27.09;102262.56;5073953;28;45355;-74
2022/03/20 11:03:44;;;;;;;;;21.33;20.00;;;;;17.21;27.43;102289.94;5079679;28;45421;-73
2022/03/20 11:06:11;;;;;;;;;18.00;18.00;;;;;17.07;26.54;102266.50;5073061;28;45585;-74
2022/03/20 11:08:37;;;;;;;;;16.00;14.00;;;;;17.35;25.55;102278.66;5082387;27;45285;-74
2022/03/20 11:11:05;;;;;;;;;36.25;31.75;;;;;17.40;27.51;102280.53;5072781;28;45924;-74
2022/03/20 11:13:33;;;;;;;;;29.25;25.25;;;;;17.36;29.55;102261.72;5069055;28;45281;-73
2022/03/20 11:16:03;;;;;;;;;26.67;24.00;;;;;17.49;27.32;102276.25;5072105;27;45359;-74
2022/03/20 11:18:32;;;;;;;;;27.25;25.50;;;;;17.17;28.45;102225.75;5080929;28;47022;-74
2022/03/20 11:21:02;;;;;;;;;20.67;20.00;;;;;17.33;27.58;102235.84;5072076;27;45492;-74
2022/03/20 11:23:30;;;;;;;;;23.67;20.33;;;;;17.26;27.93;102266.00;5082568;28;45396;-73
2022/03/20 11:25:57;;;;;;;;;27.33;19.67;;;;;17.33;28.95;102275.03;5075238;27;45449;-74
2022/03/20 11:28:23;;;;;;;;;24.33;21.67;;;;;17.38;27.33;102268.00;5071394;28;46072;-74
2022/03/20 11:30:49;;;;;;;;;20.33;19.00;;;;;17.44;25.91;102269.03;5076255;28;45453;-74
2022/03/20 11:33:20;;;;;;;;;24.00;20.33;;;;;17.10;27.05;102256.75;5070596;28;45228;-74
2022/03/20 11:35:46;;;;;;;;;21.67;18.67;;;;;17.16;28.78;102275.59;5067688;28;46086;-74
2022/03/20 11:38:18;;;;;;;;;24.00;19.00;;;;;16.98;27.13;102249.41;5070949;28;46136;-74
2022/03/20 11:41:23;;;;;;;;;26.00;21.00;;;;;17.53;27.51;102275.41;5080509;28;45166;-74
2022/03/20 11:44:20;;;;;;;;;20.00;18.67;;;;;17.72;27.92;102274.00;5079853;28;45267;-74
2022/03/20 11:47:07;;;;;;;;;25.33;19.67;;;;;17.86;26.87;102276.09;5077346;28;46161;-74
2022/03/20 11:49:33;;;;;;;;;22.33;21.33;;;;;17.68;27.25;102232.94;5062641;28;45385;-74
2022/03/20 11:52:07;;;;;;;;;22.33;20.00;;;;;18.10;27.73;102256.00;5081301;28;45346;-73
2022/03/20 11:54:51;;;;;;;;;21.00;19.00;;;;;18.33;27.99;102254.56;5081079;27;45352;-73